Time;durP1;ratioP1;P1;durP2;ratioP2;P2;SDS_P1;SDS_P2;PMS_P1;PMS_P2;Temp;Humidity;BMP_temperature;BMP_pressure;BME280_temperature;BME280_humidity;BME280_pressure;Samples;Min_cycle;Max_cycle;Signal;HPM_P1;HPM_P2
2023/07/13 00:02:07;;;;;;;3.47;1.33;;;;;;;;;;5035193;28;20439;-69
2023/07/13 00:04:33;;;;;;;3.10;1.10;;;;;;;;;;5035309;28;20450;-69
2023/07/13 00:07:00;;;;;;;11.73;1.30;;;;;;;;;;5034815;28;20498;-69
2023/07/13 00:09:26;;;;;;;2.40;1.33;;;;;;;;;;5034222;28;20466;-69
2023/07/13 00:11:53;;;;;;;44.00;3.10;;;;;;;;;;5035078;28;20459;-69
2023/07/13 00:14:20;;;;;;;1.63;1.43;;;;;;;;;;5035179;28;20412;-69
2023/07/13 00:16:46;;;;;;;1.27;1.00;;;;;;;;;;5034888;28;20419;-69
2023/07/13 00:19:12;;;;;;;1.17;0.93;;;;;;;;;;5034962;28;20810;-69
2023/07/13 00:21:39;;;;;;;8.60;1.20;;;;;;;;;;5034875;28;20471;-69
2023/07/13 00:24:06;;;;;;;0.60;0.60;;;;;;;;;;5035041;28;20565;-69
2023/07/13 00:26:32;;;;;;;1.07;1.07;;;;;;;;;;5034625;28;20985;-69
2023/07/13 00:28:59;;;;;;;0.97;0.97;;;;;;;;;;5034921;28;20414;-69
2023/07/13 00:31:25;;;;;;;2.50;0.93;;;;;;;;;;5034997;28;20431;-69
2023/07/13 00:33:51;;;;;;;1.30;1.30;;;;;;;;;;5035126;28;20912;-69
2023/07/13 00:36:17;;;;;;;1.03;1.03;;;;;;;;;;5034469;28;20420;-69
2023/07/13 00:38:43;;;;;;;1.00;1.00;;;;;;;;;;5034661;28;20837;-69
2023/07/13 00:41:09;;;;;;;2.27;1.30;;;;;;;;;;5034800;28;20419;-63
2023/07/13 00:43:37;;;;;;;3.13;1.00;;;;;;;;;;5034556;28;20477;-67
2023/07/13 00:46:10;;;;;;;2.97;1.00;;;;;;;;;;5034517;28;20506;-66
2023/07/13 00:48:37;;;;;;;0.83;0.83;;;;;;;;;;5034604;28;20415;-65
2023/07/13 00:51:03;;;;;;;1.20;1.13;;;;;;;;;;5034125;28;20529;-65
2023/07/13 00:53:31;;;;;;;1.30;1.07;;;;;;;;;;5034293;28;20921;-66
2023/07/13 00:55:57;;;;;;;2.40;0.90;;;;;;;;;;5034541;28;20415;-66
2023/07/13 00:58:25;;;;;;;1.50;1.40;;;;;;;;;;5034019;28;20423;-66
2023/07/13 01:00:52;;;;;;;0.90;0.90;;;;;;;;;;5034141;28;20419;-66
2023/07/13 01:03:19;;;;;;;9.63;1.10;;;;;;;;;;5034013;28;20514;-66
2023/07/13 01:05:47;;;;;;;2.30;1.13;;;;;;;;;;5033897;28;20657;-66
2023/07/13 01:08:13;;;;;;;1.27;1.17;;;;;;;;;;5034226;28;20426;-66
2023/07/13 01:10:39;;;;;;;1.00;1.00;;;;;;;;;;5034396;28;20436;-66
2023/07/13 01:13:06;;;;;;;1.30;1.20;;;;;;;;;;5049121;28;20183;-66
2023/07/13 01:15:45;;;;;;;3.23;1.10;;;;;;;;;;5034202;28;20423;-66
2023/07/13 01:18:14;;;;;;;3.60;0.90;;;;;;;;;;5034103;28;20430;-66
2023/07/13 01:20:40;;;;;;;1.90;0.90;;;;;;;;;;5033790;28;20466;-65
2023/07/13 01:23:07;;;;;;;1.17;1.17;;;;;;;;;;5033996;28;20415;-66
2023/07/13 01:25:35;;;;;;;1.13;1.03;;;;;;;;;;5033764;28;20489;-66
2023/07/13 01:28:01;;;;;;;4.10;1.13;;;;;;;;;;5033629;28;20431;-66
2023/07/13 01:30:27;;;;;;;1.03;1.00;;;;;;;;;;5033617;28;20435;-65
2023/07/13 01:32:53;;;;;;;1.17;1.07;;;;;;;;;;5033811;28;20462;-66
2023/07/13 01:35:19;;;;;;;2.10;1.00;;;;;;;;;;5033743;28;20415;-66
2023/07/13 01:37:45;;;;;;;1.20;1.10;;;;;;;;;;5033424;28;20415;-66
2023/07/13 01:40:12;;;;;;;1.33;1.23;;;;;;;;;;5033363;28;20188;-66
2023/07/13 01:42:37;;;;;;;3.13;1.40;;;;;;;;;;5033272;28;20685;-65
2023/07/13 01:45:04;;;;;;;2.30;1.40;;;;;;;;;;5033466;28;20415;-65
2023/07/13 01:47:30;;;;;;;3.17;1.10;;;;;;;;;;5034112;28;20434;-65
2023/07/13 01:49:56;;;;;;;1.40;1.40;;;;;;;;;;5033296;28;20517;-66
2023/07/13 01:52:23;;;;;;;1.20;1.20;;;;;;;;;;5033088;28;20427;-66
2023/07/13 01:54:49;;;;;;;4.67;1.63;;;;;;;;;;5033203;28;20770;-66
2023/07/13 01:57:15;;;;;;;1.33;1.33;;;;;;;;;;5033522;28;20416;-65
2023/07/13 01:59:41;;;;;;;2.03;1.93;;;;;;;;;;5033284;28;20420;-66
2023/07/13 02:02:07;;;;;;;1.33;1.33;;;;;;;;;;5033748;28;20915;-66
2023/07/13 02:04:33;;;;;;;1.50;1.30;;;;;;;;;;5033365;28;20425;-66
2023/07/13 02:06:59;;;;;;;1.37;1.20;;;;;;;;;;5033281;28;20478;-66
2023/07/13 02:09:25;;;;;;;3.23;1.17;;;;;;;;;;5033050;28;20416;-66
2023/07/13 02:11:51;;;;;;;2.10;1.80;;;;;;;;;;5033337;28;20435;-66
2023/07/13 02:14:17;;;;;;;2.30;1.40;;;;;;;;;;5033264;28;20451;-66
2023/07/13 02:16:43;;;;;;;3.57;1.87;;;;;;;;;;5033202;28;20506;-67
2023/07/13 02:22:13;;;;;;;1.20;1.20;;;;;;;;;;5033098;28;20398;-66
2023/07/13 02:24:39;;;;;;;1.00;1.00;;;;;;;;;;5032956;28;20514;-66
2023/07/13 02:27:05;;;;;;;1.47;1.37;;;;;;;;;;5033275;28;21017;-66
2023/07/13 02:29:31;;;;;;;4.47;1.70;;;;;;;;;;5032861;28;20510;-66
2023/07/13 02:31:57;;;;;;;1.40;1.40;;;;;;;;;;5048948;28;20458;-66
2023/07/13 02:34:23;;;;;;;10.67;1.80;;;;;;;;;;5033073;28;20776;-66
2023/07/13 02:36:49;;;;;;;3.83;1.43;;;;;;;;;;5032864;28;20952;-66
2023/07/13 02:39:15;;;;;;;1.60;1.40;;;;;;;;;;5033024;28;20439;-66
2023/07/13 02:41:41;;;;;;;1.00;1.00;;;;;;;;;;5032886;28;20423;-66
2023/07/13 02:44:08;;;;;;;4.90;1.33;;;;;;;;;;5033463;28;20431;-67
2023/07/13 02:46:35;;;;;;;7.27;1.70;;;;;;;;;;5032777;28;20479;-66
2023/07/13 02:49:01;;;;;;;2.73;1.37;;;;;;;;;;5032758;28;20426;-66
2023/07/13 02:51:28;;;;;;;6.80;1.33;;;;;;;;;;5032778;28;20422;-67
2023/07/13 02:53:54;;;;;;;5.03;1.60;;;;;;;;;;5033380;28;20430;-66
2023/07/13 02:56:23;;;;;;;20.10;1.70;;;;;;;;;;5032771;28;20514;-66
2023/07/13 03:01:52;;;;;;;4.43;3.30;;;;;;;;;;5032692;28;20748;-66
2023/07/13 03:04:19;;;;;;;5.90;1.67;;;;;;;;;;5035454;28;20407;-66
2023/07/13 03:06:45;;;;;;;5.30;1.77;;;;;;;;;;5036293;28;20890;-65
2023/07/13 03:09:12;;;;;;;7.73;2.03;;;;;;;;;;5036535;28;20419;-65
2023/07/13 03:11:39;;;;;;;1.20;1.20;;;;;;;;;;5036769;28;20890;-66
2023/07/13 03:14:05;;;;;;;3.57;1.87;;;;;;;;;;5036661;28;20411;-66
2023/07/13 03:16:31;;;;;;;10.60;1.93;;;;;;;;;;5036059;28;20427;-66
2023/07/13 03:18:57;;;;;;;4.73;1.80;;;;;;;;;;5036026;28;20426;-66
2023/07/13 03:21:23;;;;;;;3.60;1.40;;;;;;;;;;5036109;28;20427;-66
2023/07/13 03:23:49;;;;;;;4.53;1.40;;;;;;;;;;5035975;28;20420;-66
2023/07/13 03:26:17;;;;;;;0.90;0.90;;;;;;;;;;5051158;28;20513;-66
2023/07/13 03:28:43;;;;;;;0.90;0.90;;;;;;;;;;5036058;28;20419;-66
2023/07/13 03:31:11;;;;;;;2.57;1.40;;;;;;;;;;5036040;28;20420;-66
2023/07/13 03:33:37;;;;;;;2.77;1.30;;;;;;;;;;5036112;28;20844;-66
2023/07/13 03:36:04;;;;;;;4.70;1.17;;;;;;;;;;5036224;28;20427;-66
2023/07/13 03:38:30;;;;;;;1.20;1.20;;;;;;;;;;5035629;28;20977;-66
2023/07/13 03:40:55;;;;;;;4.33;1.00;;;;;;;;;;5035970;28;20498;-66
2023/07/13 03:43:21;;;;;;;3.60;0.90;;;;;;;;;;5035855;28;20453;-65
2023/07/13 03:45:48;;;;;;;5.13;1.20;;;;;;;;;;5035769;28;20938;-65
2023/07/13 03:48:15;;;;;;;24.07;1.10;;;;;;;;;;5035303;28;20481;-66
2023/07/13 03:50:41;;;;;;;0.70;0.70;;;;;;;;;;5035365;28;20596;-66
2023/07/13 03:53:08;;;;;;;1.03;0.90;;;;;;;;;;5035685;28;20469;-66
2023/07/13 03:55:33;;;;;;;1.13;1.13;;;;;;;;;;5035608;28;20504;-66
2023/07/13 03:58:02;;;;;;;2.63;1.57;;;;;;;;;;5035228;28;20466;-67
2023/07/13 04:00:28;;;;;;;2.50;0.93;;;;;;;;;;5035506;28;20181;-66
2023/07/13 04:02:54;;;;;;;1.10;0.93;;;;;;;;;;5035307;28;20425;-66
2023/07/13 04:05:20;;;;;;;0.87;0.87;;;;;;;;;;5034996;28;20263;-66
2023/07/13 04:07:46;;;;;;;2.50;1.17;;;;;;;;;;5035701;28;20185;-66
2023/07/13 04:10:12;;;;;;;4.33;1.47;;;;;;;;;;5035339;28;20510;-67
2023/07/13 04:12:38;;;;;;;3.10;1.13;;;;;;;;;;5035305;28;20420;-66
2023/07/13 04:15:04;;;;;;;1.27;0.70;;;;;;;;;;5034776;28;20454;-66
2023/07/13 04:17:30;;;;;;;2.57;1.57;;;;;;;;;;5034892;28;20176;-66
2023/07/13 04:19:55;;;;;;;2.63;1.37;;;;;;;;;;5035004;28;20434;-66
2023/07/13 04:22:21;;;;;;;4.80;0.80;;;;;;;;;;5034843;28;20264;-66
2023/07/13 04:24:47;;;;;;;2.60;1.10;;;;;;;;;;5035061;28;20184;-66
2023/07/13 04:27:13;;;;;;;0.60;0.60;;;;;;;;;;5034638;28;20212;-66
2023/07/13 04:29:39;;;;;;;1.10;1.10;;;;;;;;;;5034989;28;20472;-66
2023/07/13 04:32:05;;;;;;;1.30;1.27;;;;;;;;;;5034892;28;20477;-66
2023/07/13 04:34:31;;;;;;;1.20;1.20;;;;;;;;;;5034643;28;20471;-65
2023/07/13 04:36:57;;;;;;;6.57;1.17;;;;;;;;;;5049987;28;20434;-66
2023/07/13 04:39:23;;;;;;;13.93;1.53;;;;;;;;;;5034483;28;20895;-67
2023/07/13 04:41:49;;;;;;;3.70;1.37;;;;;;;;;;5034811;28;20621;-66
2023/07/13 04:44:15;;;;;;;1.30;1.30;;;;;;;;;;5034681;28;20424;-66
2023/07/13 04:46:41;;;;;;;1.10;1.10;;;;;;;;;;5034586;28;20467;-66
2023/07/13 04:49:07;;;;;;;2.07;2.00;;;;;;;;;;5034171;28;20447;-66
2023/07/13 04:51:33;;;;;;;1.33;1.00;;;;;;;;;;5034335;28;20173;-65
2023/07/13 04:53:59;;;;;;;2.63;1.37;;;;;;;;;;5034229;28;20457;-66
2023/07/13 04:56:25;;;;;;;1.50;1.40;;;;;;;;;;5034145;28;20271;-66
2023/07/13 04:58:51;;;;;;;2.40;1.00;;;;;;;;;;5034056;28;20458;-67
2023/07/13 05:01:17;;;;;;;3.97;1.47;;;;;;;;;;5034519;28;20420;-66
2023/07/13 05:03:43;;;;;;;5.10;1.20;;;;;;;;;;5034382;28;20812;-66
2023/07/13 05:06:10;;;;;;;3.07;2.80;;;;;;;;;;5033890;28;20505;-67
2023/07/13 05:08:36;;;;;;;1.00;1.00;;;;;;;;;;5034246;28;20189;-66
2023/07/13 05:11:02;;;;;;;1.37;1.10;;;;;;;;;;5034242;28;20753;-66
2023/07/13 05:13:28;;;;;;;3.80;1.80;;;;;;;;;;5034559;28;20419;-66
2023/07/13 05:15:59;;;;;;;1.57;0.97;;;;;;;;;;5033827;28;20438;-66
2023/07/13 05:18:25;;;;;;;6.60;1.70;;;;;;;;;;5033836;28;20423;-66
2023/07/13 05:20:58;;;;;;;7.07;1.37;;;;;;;;;;5034452;28;20506;-68
2023/07/13 05:23:24;;;;;;;3.80;1.47;;;;;;;;;;5033962;28;20415;-66
2023/07/13 05:25:50;;;;;;;1.33;1.20;;;;;;;;;;5033074;28;20479;-66
2023/07/13 05:28:16;;;;;;;1.67;1.10;;;;;;;;;;5033604;28;20415;-66
2023/07/13 05:30:46;;;;;;;2.30;1.43;;;;;;;;;;5033862;28;20427;-65
2023/07/13 05:33:12;;;;;;;1.80;1.50;;;;;;;;;;5033862;28;20181;-66
2023/07/13 05:35:38;;;;;;;2.73;1.33;;;;;;;;;;5033484;28;20765;-66
2023/07/13 05:38:04;;;;;;;1.37;1.27;;;;;;;;;;5033476;28;20418;-66
2023/07/13 05:40:30;;;;;;;3.27;1.90;;;;;;;;;;5033709;28;20989;-66
2023/07/13 05:42:56;;;;;;;1.20;1.20;;;;;;;;;;5033284;28;20419;-67
2023/07/13 05:45:22;;;;;;;7.47;1.33;;;;;;;;;;5033618;28;20468;-66
2023/07/13 05:47:48;;;;;;;1.90;1.40;;;;;;;;;;5033401;28;20188;-66
2023/07/13 05:50:14;;;;;;;0.93;0.87;;;;;;;;;;5033020;28;20474;-67
2023/07/13 05:52:40;;;;;;;8.70;0.80;;;;;;;;;;5048582;28;20184;-64
2023/07/13 05:55:06;;;;;;;4.63;1.20;;;;;;;;;;5033210;28;20465;-61
2023/07/13 05:57:32;;;;;;;2.60;1.60;;;;;;;;;;5033470;28;20898;-66
2023/07/13 05:59:58;;;;;;;0.90;0.90;;;;;;;;;;5032110;28;20430;-61
2023/07/13 06:02:25;;;;;;;3.90;1.57;;;;;;;;;;5032982;28;20227;-61
2023/07/13 06:04:51;;;;;;;1.83;1.50;;;;;;;;;;5033012;28;20455;-62
2023/07/13 06:07:17;;;;;;;4.07;1.30;;;;;;;;;;5033097;28;20529;-62
2023/07/13 06:12:46;;;;;;;3.03;1.50;;;;;;;;;;5032966;28;20535;-61
2023/07/13 06:15:12;;;;;;;7.77;1.43;;;;;;;;;;5033314;28;20984;-61
2023/07/13 06:17:38;;;;;;;4.60;1.23;;;;;;;;;;5033004;28;20411;-61
2023/07/13 06:20:04;;;;;;;1.57;1.47;;;;;;;;;;5033490;28;20427;-62
2023/07/13 06:22:30;;;;;;;4.50;1.80;;;;;;;;;;5031869;28;20894;-64
2023/07/13 06:24:56;;;;;;;2.10;2.00;;;;;;;;;;5032972;28;20270;-61
2023/07/13 06:27:22;;;;;;;3.60;1.53;;;;;;;;;;5032850;28;20215;-61
2023/07/13 06:32:51;;;;;;;10.07;1.40;;;;;;;;;;5033533;28;20533;-61
2023/07/13 06:35:17;;;;;;;7.77;1.20;;;;;;;;;;5032954;28;20419;-62
2023/07/13 06:37:43;;;;;;;6.67;1.53;;;;;;;;;;5050479;28;20242;-61
2023/07/13 06:40:11;;;;;;;1.87;1.30;;;;;;;;;;5036961;28;20415;-61
2023/07/13 06:42:38;;;;;;;3.47;1.60;;;;;;;;;;5036848;28;20481;-61
2023/07/13 06:45:04;;;;;;;3.77;1.40;;;;;;;;;;5036581;28;20465;-61
2023/07/13 06:47:30;;;;;;;1.23;1.17;;;;;;;;;;5036403;28;21033;-65
2023/07/13 06:49:56;;;;;;;11.63;1.27;;;;;;;;;;5051609;28;20475;-63
2023/07/13 06:52:22;;;;;;;1.10;1.10;;;;;;;;;;5036814;28;20423;-61
2023/07/13 06:54:48;;;;;;;2.20;1.30;;;;;;;;;;5036474;28;20422;-62
2023/07/13 06:57:14;;;;;;;7.87;1.00;;;;;;;;;;5036066;28;20550;-69
2023/07/13 06:59:40;;;;;;;1.30;1.17;;;;;;;;;;5036635;28;20181;-61
2023/07/13 07:02:06;;;;;;;5.00;1.33;;;;;;;;;;5036588;28;20423;-61
2023/07/13 07:04:32;;;;;;;1.23;1.13;;;;;;;;;;5036579;28;20416;-61
2023/07/13 07:06:58;;;;;;;2.50;1.27;;;;;;;;;;5036702;28;20506;-61
2023/07/13 07:09:24;;;;;;;1.37;1.37;;;;;;;;;;5035707;28;20443;-61
2023/07/13 07:11:50;;;;;;;1.93;1.40;;;;;;;;;;5036340;28;20456;-62
2023/07/13 07:14:17;;;;;;;2.33;1.50;;;;;;;;;;5036103;28;20918;-64
2023/07/13 07:16:43;;;;;;;7.80;1.43;;;;;;;;;;5035962;28;21033;-61
2023/07/13 07:19:09;;;;;;;2.13;1.03;;;;;;;;;;5035830;28;20438;-61
2023/07/13 07:21:35;;;;;;;2.27;1.60;;;;;;;;;;5036149;28;20549;-60
2023/07/13 07:24:03;;;;;;;3.70;1.47;;;;;;;;;;5036027;28;20427;-61
2023/07/13 07:26:28;;;;;;;1.73;1.10;;;;;;;;;;5035981;28;20471;-61
2023/07/13 07:28:54;;;;;;;3.43;1.67;;;;;;;;;;5035863;28;20474;-60
2023/07/13 07:31:20;;;;;;;4.53;1.07;;;;;;;;;;5036230;28;20415;-61
2023/07/13 07:33:46;;;;;;;3.90;1.43;;;;;;;;;;5036697;28;20416;-60
2023/07/13 07:36:12;;;;;;;2.40;1.20;;;;;;;;;;5035943;28;20195;-61
2023/07/13 07:38:38;;;;;;;1.60;1.50;;;;;;;;;;5035818;28;20415;-60
2023/07/13 07:41:05;;;;;;;2.10;1.87;;;;;;;;;;5035862;28;20410;-61
2023/07/13 07:43:31;;;;;;;1.33;1.03;;;;;;;;;;5035750;28;20411;-61
2023/07/13 07:45:57;;;;;;;6.50;1.47;;;;;;;;;;5035526;28;21040;-60
2023/07/13 07:48:23;;;;;;;4.03;1.30;;;;;;;;;;5034895;28;20431;-60
2023/07/13 07:50:49;;;;;;;4.37;1.70;;;;;;;;;;5035254;28;20474;-60
2023/07/13 07:53:15;;;;;;;7.43;1.17;;;;;;;;;;5035596;28;20427;-60
2023/07/13 07:55:41;;;;;;;2.23;1.30;;;;;;;;;;5035656;28;20528;-61
2023/07/13 07:58:07;;;;;;;1.27;0.90;;;;;;;;;;5035311;28;20415;-60
2023/07/13 08:00:35;;;;;;;1.30;1.20;;;;;;;;;;5035527;28;20419;-60
2023/07/13 08:03:01;;;;;;;1.23;1.23;;;;;;;;;;5035107;28;20416;-70
2023/07/13 08:05:27;;;;;;;6.47;1.50;;;;;;;;;;5035017;28;20831;-71
2023/07/13 08:07:53;;;;;;;4.40;1.40;;;;;;;;;;5035377;28;20432;-71
2023/07/13 08:10:19;;;;;;;2.87;1.00;;;;;;;;;;5035640;28;20411;-71
2023/07/13 08:12:45;;;;;;;3.37;1.40;;;;;;;;;;5035019;28;20803;-71
2023/07/13 08:15:12;;;;;;;3.17;1.67;;;;;;;;;;5035313;28;20425;-71
2023/07/13 08:17:39;;;;;;;0.83;0.83;;;;;;;;;;5035065;28;20513;-71
2023/07/13 08:20:05;;;;;;;1.50;1.50;;;;;;;;;;5034949;28;20430;-71
2023/07/13 08:22:31;;;;;;;1.33;0.93;;;;;;;;;;5035163;28;20435;-71
2023/07/13 08:24:57;;;;;;;1.50;1.40;;;;;;;;;;5035107;28;20428;-71
2023/07/13 08:27:23;;;;;;;5.13;1.03;;;;;;;;;;5034726;28;20566;-71
2023/07/13 08:32:53;;;;;;;1.60;1.50;;;;;;;;;;5034728;28;20504;-71
2023/07/13 08:35:19;;;;;;;0.80;0.80;;;;;;;;;;5034889;28;20423;-71
2023/07/13 08:37:45;;;;;;;3.70;1.20;;;;;;;;;;5034804;28;20426;-71
2023/07/13 08:40:12;;;;;;;2.63;1.60;;;;;;;;;;5034553;28;20791;-71
2023/07/13 08:42:38;;;;;;;6.83;1.17;;;;;;;;;;5034451;28;20416;-71
2023/07/13 08:45:13;;;;;;;2.30;1.37;;;;;;;;;;5034735;28;20424;-71
2023/07/13 08:47:44;;;;;;;1.80;1.10;;;;;;;;;;5034697;28;20311;-71
2023/07/13 08:50:12;;;;;;;4.40;1.30;;;;;;;;;;5034297;28;20462;-71
2023/07/13 08:52:41;;;;;;;15.57;1.40;;;;;;;;;;5034621;28;20423;-71
2023/07/13 08:55:18;;;;;;;0.80;0.80;;;;;;;;;;5049721;28;20427;-71
2023/07/13 08:57:46;;;;;;;2.20;1.00;;;;;;;;;;5034484;28;20409;-71
2023/07/13 09:00:14;;;;;;;3.83;1.03;;;;;;;;;;5034093;28;20446;-71
2023/07/13 09:02:52;;;;;;;1.30;1.20;;;;;;;;;;5034397;28;20420;-71
2023/07/13 09:05:23;;;;;;;1.13;1.10;;;;;;;;;;5034311;28;20465;-71
2023/07/13 09:07:52;;;;;;;2.33;0.90;;;;;;;;;;5034247;28;20431;-71
2023/07/13 09:10:20;;;;;;;1.33;0.70;;;;;;;;;;5034295;28;20419;-69
2023/07/13 09:12:52;;;;;;;1.10;1.10;;;;;;;;;;5033880;28;20424;-69
2023/07/13 09:15:26;;;;;;;1.23;0.93;;;;;;;;;;5049191;28;20472;-69
2023/07/13 09:17:55;;;;;;;5.77;1.30;;;;;;;;;;5033889;28;20423;-69
2023/07/13 09:20:21;;;;;;;2.10;0.90;;;;;;;;;;5033584;28;20404;-69
2023/07/13 09:22:47;;;;;;;1.80;0.77;;;;;;;;;;5034014;28;20765;-69
2023/07/13 09:25:21;;;;;;;3.27;0.90;;;;;;;;;;5033693;28;21064;-69
2023/07/13 09:27:48;;;;;;;5.50;1.20;;;;;;;;;;5034115;28;20423;-69
2023/07/13 09:30:14;;;;;;;1.33;1.07;;;;;;;;;;5033765;28;20434;-69
2023/07/13 09:32:43;;;;;;;1.10;1.00;;;;;;;;;;5033503;28;20419;-69
2023/07/13 09:35:13;;;;;;;10.43;1.90;;;;;;;;;;5033519;28;20778;-69
2023/07/13 09:37:41;;;;;;;8.57;1.03;;;;;;;;;;5033489;28;20823;-61
2023/07/13 09:40:11;;;;;;;0.83;0.83;;;;;;;;;;5033956;28;20420;-61
2023/07/13 09:42:38;;;;;;;2.97;0.87;;;;;;;;;;5033293;28;20408;-61
2023/07/13 09:45:05;;;;;;;0.77;0.77;;;;;;;;;;5033434;28;20427;-61
2023/07/13 09:47:34;;;;;;;0.83;0.77;;;;;;;;;;5033360;28;20463;-61
2023/07/13 09:50:01;;;;;;;2.43;1.03;;;;;;;;;;5033026;28;20554;-61
2023/07/13 09:52:28;;;;;;;3.67;1.23;;;;;;;;;;5033276;28;20462;-61
2023/07/13 09:54:58;;;;;;;2.73;1.43;;;;;;;;;;5033299;28;20418;-62
2023/07/13 09:57:25;;;;;;;2.63;1.33;;;;;;;;;;5033025;28;20498;-61
2023/07/13 09:59:52;;;;;;;1.63;0.93;;;;;;;;;;5033134;28;20956;-61
2023/07/13 10:02:25;;;;;;;3.87;1.30;;;;;;;;;;5033123;28;20426;-61
2023/07/13 10:04:59;;;;;;;1.57;0.87;;;;;;;;;;5033392;28;20427;-62
2023/07/13 10:07:25;;;;;;;5.60;0.97;;;;;;;;;;5033429;28;20947;-61
2023/07/13 10:09:55;;;;;;;2.30;0.90;;;;;;;;;;5033073;28;20419;-61
2023/07/13 10:12:24;;;;;;;1.00;1.00;;;;;;;;;;5036477;28;20513;-61
2023/07/13 10:14:51;;;;;;;3.10;1.57;;;;;;;;;;5039692;28;20415;-61
2023/07/13 10:17:18;;;;;;;4.30;1.23;;;;;;;;;;5039851;28;20509;-61
2023/07/13 10:22:54;;;;;;;1.80;1.30;;;;;;;;;;5039586;28;20386;-61
2023/07/13 10:25:22;;;;;;;4.30;1.40;;;;;;;;;;5039800;28;20783;-61
2023/07/13 10:27:51;;;;;;;7.27;1.20;;;;;;;;;;5039441;28;20801;-61
2023/07/13 10:30:31;;;;;;;1.60;1.40;;;;;;;;;;5039669;28;20918;-61
2023/07/13 10:32:59;;;;;;;5.93;0.90;;;;;;;;;;5039761;28;20429;-61
2023/07/13 10:35:26;;;;;;;2.00;0.83;;;;;;;;;;5039778;28;20464;-61
2023/07/13 10:37:54;;;;;;;10.60;1.00;;;;;;;;;;5040745;28;20427;-68
2023/07/13 10:40:24;;;;;;;5.93;1.27;;;;;;;;;;5039616;28;20418;-67
2023/07/13 10:42:51;;;;;;;4.70;1.80;;;;;;;;;;5039707;28;20415;-68
2023/07/13 10:45:19;;;;;;;1.10;1.00;;;;;;;;;;5039212;28;20418;-69
2023/07/13 10:47:45;;;;;;;4.50;1.00;;;;;;;;;;5039181;28;20441;-67
2023/07/13 10:50:20;;;;;;;0.70;0.70;;;;;;;;;;5038918;28;20458;-68
2023/07/13 10:53:01;;;;;;;2.60;1.30;;;;;;;;;;5039555;28;20417;-69
2023/07/13 10:55:55;;;;;;;5.00;1.20;;;;;;;;;;5039451;28;20399;-70
2023/07/13 10:58:22;;;;;;;1.33;1.20;;;;;;;;;;5039369;28;20418;-68
2023/07/13 11:00:49;;;;;;;7.10;1.43;;;;;;;;;;5039316;28;20542;-66
2023/07/13 11:03:18;;;;;;;9.73;0.90;;;;;;;;;;5038464;28;20442;-67
2023/07/13 11:05:44;;;;;;;1.83;1.20;;;;;;;;;;5039720;28;20478;-67
2023/07/13 11:08:20;;;;;;;8.90;1.30;;;;;;;;;;5039018;28;20462;-67
2023/07/13 11:10:49;;;;;;;2.30;1.00;;;;;;;;;;5039396;28;20415;-68
2023/07/13 11:13:34;;;;;;;2.63;0.93;;;;;;;;;;5039278;28;20415;-68
2023/07/13 11:16:00;;;;;;;1.07;0.83;;;;;;;;;;5039379;28;20445;-66
2023/07/13 11:18:26;;;;;;;7.20;1.00;;;;;;;;;;5039228;28;20419;-67
2023/07/13 11:20:52;;;;;;;0.90;0.90;;;;;;;;;;5039034;28;20469;-67
2023/07/13 11:23:20;;;;;;;1.23;1.10;;;;;;;;;;5037493;28;20796;-67
2023/07/13 11:25:46;;;;;;;1.60;1.60;;;;;;;;;;5035918;28;20562;-67
2023/07/13 11:28:12;;;;;;;0.80;0.80;;;;;;;;;;5035805;28;20510;-67
2023/07/13 11:30:40;;;;;;;2.50;1.60;;;;;;;;;;5035731;28;20451;-66
2023/07/13 11:33:15;;;;;;;1.70;1.20;;;;;;;;;;5035616;28;20411;-67
2023/07/13 11:35:44;;;;;;;3.63;1.17;;;;;;;;;;5035666;28;20522;-66
2023/07/13 11:38:15;;;;;;;2.53;0.90;;;;;;;;;;5035667;28;20903;-67
2023/07/13 11:40:41;;;;;;;0.90;0.90;;;;;;;;;;5035658;28;20926;-67
2023/07/13 11:43:07;;;;;;;2.23;1.00;;;;;;;;;;5035752;28;20416;-68
2023/07/13 11:45:34;;;;;;;0.90;0.90;;;;;;;;;;5036232;28;20934;-67
2023/07/13 11:48:01;;;;;;;1.37;1.30;;;;;;;;;;5035345;28;20980;-67
2023/07/13 11:50:27;;;;;;;2.83;2.33;;;;;;;;;;5035313;28;20574;-69
2023/07/13 11:52:55;;;;;;;0.80;0.80;;;;;;;;;;5050693;28;20443;-69
2023/07/13 11:55:24;;;;;;;1.77;1.67;;;;;;;;;;5035558;28;20469;-68
2023/07/13 11:57:52;;;;;;;2.10;1.40;;;;;;;;;;5035657;28;20450;-69
2023/07/13 12:00:21;;;;;;;4.30;1.27;;;;;;;;;;5035513;28;20502;-69
2023/07/13 12:02:51;;;;;;;5.87;2.27;;;;;;;;;;5035453;28;20428;-69
2023/07/13 12:05:18;;;;;;;1.67;1.43;;;;;;;;;;5035130;28;21011;-69
2023/07/13 12:07:45;;;;;;;3.33;0.83;;;;;;;;;;5034873;28;20553;-69
2023/07/13 12:10:21;;;;;;;1.43;1.17;;;;;;;;;;5036080;28;20506;-69
2023/07/13 12:12:51;;;;;;;5.93;1.00;;;;;;;;;;5035146;28;20423;-64
2023/07/13 12:15:17;;;;;;;1.30;1.20;;;;;;;;;;5035282;28;20422;-61
2023/07/13 12:17:44;;;;;;;2.33;1.00;;;;;;;;;;5035101;28;20805;-61
2023/07/13 12:20:20;;;;;;;1.40;1.10;;;;;;;;;;5034971;28;20441;-69
2023/07/13 12:22:48;;;;;;;2.30;0.90;;;;;;;;;;5035022;28;20883;-69
2023/07/13 12:25:14;;;;;;;0.73;0.73;;;;;;;;;;5035049;28;20573;-69
2023/07/13 12:27:40;;;;;;;2.33;1.13;;;;;;;;;;5034804;28;20478;-69
2023/07/13 12:30:22;;;;;;;1.73;0.80;;;;;;;;;;5034896;28;20451;-69
2023/07/13 12:33:02;;;;;;;5.20;1.00;;;;;;;;;;5034584;28;20422;-69
2023/07/13 12:35:35;;;;;;;4.80;1.10;;;;;;;;;;5049657;28;20478;-69
2023/07/13 12:38:01;;;;;;;1.47;1.10;;;;;;;;;;5034694;28;20429;-69
2023/07/13 12:40:32;;;;;;;1.50;0.80;;;;;;;;;;5034816;28;20498;-69
2023/07/13 12:42:58;;;;;;;2.97;1.17;;;;;;;;;;5034325;28;20920;-69
2023/07/13 12:45:26;;;;;;;3.23;1.20;;;;;;;;;;5035057;28;20415;-69
2023/07/13 12:47:58;;;;;;;1.30;1.30;;;;;;;;;;5034685;28;20429;-69
2023/07/13 12:50:29;;;;;;;6.73;1.27;;;;;;;;;;5034268;28;20455;-69
2023/07/13 12:53:00;;;;;;;1.40;1.30;;;;;;;;;;5034617;28;20553;-69
2023/07/13 12:55:26;;;;;;;1.37;1.37;;;;;;;;;;5034563;28;20400;-69
2023/07/13 12:57:53;;;;;;;0.90;0.90;;;;;;;;;;5034484;28;20501;-69
2023/07/13 13:00:19;;;;;;;4.43;1.13;;;;;;;;;;5034488;28;20506;-69
2023/07/13 13:02:45;;;;;;;3.00;1.00;;;;;;;;;;5034357;28;20447;-69
2023/07/13 13:05:14;;;;;;;4.83;0.93;;;;;;;;;;5033973;28;20427;-69
2023/07/13 13:07:40;;;;;;;1.10;1.10;;;;;;;;;;5035085;28;20536;-69
2023/07/13 13:10:13;;;;;;;2.33;0.90;;;;;;;;;;5034372;28;20408;-69
2023/07/13 13:12:42;;;;;;;1.53;1.03;;;;;;;;;;5033789;28;20422;-69
2023/07/13 13:15:08;;;;;;;2.70;1.03;;;;;;;;;;5034203;28;20415;-69
2023/07/13 13:17:34;;;;;;;1.20;1.10;;;;;;;;;;5034147;28;20423;-69
2023/07/13 13:20:00;;;;;;;1.77;1.20;;;;;;;;;;5033892;28;20419;-69
2023/07/13 13:22:26;;;;;;;1.80;1.43;;;;;;;;;;5033819;28;20431;-69
2023/07/13 13:24:52;;;;;;;1.73;1.30;;;;;;;;;;5034079;28;20412;-69
2023/07/13 13:27:20;;;;;;;1.40;1.07;;;;;;;;;;5033896;28;20477;-69
2023/07/13 13:29:46;;;;;;;2.20;1.10;;;;;;;;;;5033916;28;20430;-69
2023/07/13 13:32:13;;;;;;;1.03;1.03;;;;;;;;;;5033903;28;20427;-69
2023/07/13 13:34:39;;;;;;;1.27;1.10;;;;;;;;;;5033846;28;20462;-69
2023/07/13 13:37:12;;;;;;;1.27;1.27;;;;;;;;;;5033588;28;20415;-69
2023/07/13 13:39:38;;;;;;;3.23;1.57;;;;;;;;;;5033825;28;20450;-69
2023/07/13 13:42:05;;;;;;;1.90;1.10;;;;;;;;;;5033667;28;20415;-69
2023/07/13 13:44:31;;;;;;;6.20;2.50;;;;;;;;;;5033704;28;20411;-69
2023/07/13 13:46:58;;;;;;;0.90;0.90;;;;;;;;;;5032570;28;21009;-69
2023/07/13 13:49:25;;;;;;;0.80;0.80;;;;;;;;;;5033601;28;20462;-69
2023/07/13 13:51:52;;;;;;;1.00;1.00;;;;;;;;;;5048666;28;20435;-69
2023/07/13 13:54:19;;;;;;;1.40;0.80;;;;;;;;;;5033518;28;20423;-69
2023/07/13 13:56:46;;;;;;;2.00;0.80;;;;;;;;;;5033242;28;20459;-69
2023/07/13 13:59:13;;;;;;;0.83;0.83;;;;;;;;;;5033236;28;20415;-69
2023/07/13 14:01:39;;;;;;;3.50;1.47;;;;;;;;;;5033159;28;20424;-69
2023/07/13 14:04:06;;;;;;;5.10;1.90;;;;;;;;;;5033197;28;20798;-69
2023/07/13 14:06:33;;;;;;;0.90;0.90;;;;;;;;;;5048349;28;20503;-69
2023/07/13 14:09:00;;;;;;;3.17;0.90;;;;;;;;;;5033427;28;20422;-69
2023/07/13 14:11:26;;;;;;;1.13;1.03;;;;;;;;;;5033388;28;20453;-69
2023/07/13 14:13:55;;;;;;;1.13;1.13;;;;;;;;;;5033377;28;20450;-69
2023/07/13 14:16:22;;;;;;;3.90;1.40;;;;;;;;;;5033062;28;20934;-69
2023/07/13 14:18:48;;;;;;;1.20;1.10;;;;;;;;;;5033339;28;20778;-69
2023/07/13 14:21:18;;;;;;;6.63;1.23;;;;;;;;;;5033099;28;20796;-69
2023/07/13 14:23:45;;;;;;;2.67;1.30;;;;;;;;;;5033257;28;20435;-69
2023/07/13 14:26:13;;;;;;;8.47;1.10;;;;;;;;;;5033189;28;20459;-69
2023/07/13 14:28:42;;;;;;;1.17;1.13;;;;;;;;;;5033240;28;20436;-69
2023/07/13 14:31:08;;;;;;;1.47;1.47;;;;;;;;;;5033276;28;20423;-69
2023/07/13 14:33:34;;;;;;;1.33;1.23;;;;;;;;;;5033114;28;20434;-69
2023/07/13 14:36:00;;;;;;;0.93;0.73;;;;;;;;;;5032930;28;20536;-69
2023/07/13 14:38:27;;;;;;;0.90;0.90;;;;;;;;;;5033243;28;20491;-69
2023/07/13 14:40:53;;;;;;;2.53;0.90;;;;;;;;;;5033142;28;20414;-69
2023/07/13 14:43:19;;;;;;;10.03;1.20;;;;;;;;;;5048099;28;20522;-69
2023/07/13 14:45:47;;;;;;;1.13;1.13;;;;;;;;;;5032852;28;20411;-69
2023/07/13 14:48:15;;;;;;;4.17;0.93;;;;;;;;;;5048120;28;20419;-69
2023/07/13 14:50:41;;;;;;;0.93;0.93;;;;;;;;;;5032619;28;20459;-69
2023/07/13 14:53:10;;;;;;;1.73;1.30;;;;;;;;;;5032996;28;20469;-69
2023/07/13 14:55:36;;;;;;;6.63;1.47;;;;;;;;;;5033094;28;20522;-69
2023/07/13 14:58:02;;;;;;;3.23;1.30;;;;;;;;;;5033796;28;20466;-69
2023/07/13 15:00:29;;;;;;;1.00;1.00;;;;;;;;;;5036819;28;20823;-69
2023/07/13 15:02:57;;;;;;;1.53;1.10;;;;;;;;;;5036724;28;20423;-69